sensor_id;sensor_type;location;lat;lon;timestamp;P1;durP1;ratioP1;P2;durP2;ratioP2
72053;SDS011;59918;51.280;7.950;2023-05-02T00:00:41;9.85;;;7.68;;
72053;SDS011;59918;51.280;7.950;2023-05-02T00:03:07;11.10;;;7.93;;
72053;SDS011;59918;51.280;7.950;2023-05-02T00:05:33;10.75;;;7.78;;
72053;SDS011;59918;51.280;7.950;2023-05-02T00:07:58;11.43;;;9.70;;
72053;SDS011;59918;51.280;7.950;2023-05-02T00:10:23;13.73;;;10.95;;
72053;SDS011;59918;51.280;7.950;2023-05-02T00:12:52;16.88;;;11.13;;
72053;SDS011;59918;51.280;7.950;2023-05-02T00:15:17;13.57;;;8.60;;
72053;SDS011;59918;51.280;7.950;2023-05-02T00:17:42;14.88;;;8.48;;
72053;SDS011;59918;51.280;7.950;2023-05-02T00:20:08;15.18;;;11.65;;
72053;SDS011;59918;51.280;7.950;2023-05-02T00:22:34;20.77;;;13.00;;
72053;SDS011;59918;51.280;7.950;2023-05-02T00:25:07;15.07;;;11.30;;
72053;SDS011;59918;51.280;7.950;2023-05-02T00:27:33;16.27;;;13.00;;
72053;SDS011;59918;51.280;7.950;2023-05-02T00:29:58;22.55;;;15.20;;
72053;SDS011;59918;51.280;7.950;2023-05-02T00:32:27;25.15;;;14.93;;
72053;SDS011;59918;51.280;7.950;2023-05-02T00:34:52;25.70;;;17.67;;
72053;SDS011;59918;51.280;7.950;2023-05-02T00:37:17;23.40;;;17.45;;
72053;SDS011;59918;51.280;7.950;2023-05-02T00:39:43;25.50;;;17.88;;
72053;SDS011;59918;51.280;7.950;2023-05-02T00:42:08;29.40;;;18.63;;
72053;SDS011;59918;51.280;7.950;2023-05-02T00:44:34;35.08;;;18.42;;
72053;SDS011;59918;51.280;7.950;2023-05-02T00:46:59;29.00;;;18.75;;
72053;SDS011;59918;51.280;7.950;2023-05-02T00:49:28;27.80;;;18.38;;
72053;SDS011;59918;51.280;7.950;2023-05-02T00:51:53;27.65;;;17.73;;
72053;SDS011;59918;51.280;7.950;2023-05-02T00:54:19;24.58;;;17.55;;
72053;SDS011;59918;51.280;7.950;2023-05-02T00:56:44;26.90;;;19.30;;
72053;SDS011;59918;51.280;7.950;2023-05-02T00:59:09;24.83;;;17.70;;
72053;SDS011;59918;51.280;7.950;2023-05-02T01:15:45;31.42;;;19.77;;
72053;SDS011;59918;51.280;7.950;2023-05-02T01:18:16;32.30;;;21.60;;
72053;SDS011;59918;51.280;7.950;2023-05-02T01:20:45;30.60;;;19.92;;
72053;SDS011;59918;51.280;7.950;2023-05-02T01:28:48;36.03;;;21.30;;
72053;SDS011;59918;51.280;7.950;2023-05-02T01:31:34;36.08;;;22.92;;
72053;SDS011;59918;51.280;7.950;2023-05-02T01:34:04;33.90;;;22.02;;
72053;SDS011;59918;51.280;7.950;2023-05-02T01:36:32;34.70;;;23.08;;
72053;SDS011;59918;51.280;7.950;2023-05-02T01:38:59;36.35;;;23.88;;
72053;SDS011;59918;51.280;7.950;2023-05-02T01:41:30;35.78;;;24.80;;
72053;SDS011;59918;51.280;7.950;2023-05-02T01:43:56;43.25;;;26.15;;
72053;SDS011;59918;51.280;7.950;2023-05-02T01:46:24;40.90;;;25.58;;
72053;SDS011;59918;51.280;7.950;2023-05-02T01:49:00;43.05;;;26.38;;
72053;SDS011;59918;51.280;7.950;2023-05-02T01:51:31;44.35;;;27.65;;
72053;SDS011;59918;51.280;7.950;2023-05-02T01:53:58;44.00;;;27.67;;
72053;SDS011;59918;51.280;7.950;2023-05-02T01:56:29;43.58;;;27.02;;
72053;SDS011;59918;51.280;7.950;2023-05-02T01:58:56;55.33;;;27.88;;
72053;SDS011;59918;51.280;7.950;2023-05-02T02:01:23;43.95;;;28.17;;
72053;SDS011;59918;51.280;7.950;2023-05-02T02:03:53;48.38;;;29.30;;
72053;SDS011;59918;51.280;7.950;2023-05-02T02:06:21;49.95;;;27.95;;
72053;SDS011;59918;51.280;7.950;2023-05-02T02:08:46;52.70;;;30.52;;
72053;SDS011;59918;51.280;7.950;2023-05-02T02:14:17;58.03;;;31.60;;
72053;SDS011;59918;51.280;7.950;2023-05-02T02:16:45;54.42;;;31.73;;
72053;SDS011;59918;51.280;7.950;2023-05-02T02:19:12;54.83;;;31.27;;
72053;SDS011;59918;51.280;7.950;2023-05-02T02:21:41;54.58;;;32.42;;
72053;SDS011;59918;51.280;7.950;2023-05-02T02:24:07;55.17;;;32.63;;
72053;SDS011;59918;51.280;7.950;2023-05-02T02:26:34;60.47;;;33.83;;
72053;SDS011;59918;51.280;7.950;2023-05-02T02:29:00;63.45;;;36.83;;
72053;SDS011;59918;51.280;7.950;2023-05-02T02:31:34;57.17;;;34.65;;
72053;SDS011;59918;51.280;7.950;2023-05-02T02:34:00;63.75;;;37.10;;
72053;SDS011;59918;51.280;7.950;2023-05-02T02:39:15;74.10;;;39.28;;
72053;SDS011;59918;51.280;7.950;2023-05-02T02:42:09;71.22;;;38.80;;
72053;SDS011;59918;51.280;7.950;2023-05-02T02:44:39;68.55;;;37.97;;
72053;SDS011;59918;51.280;7.950;2023-05-02T02:50:37;72.57;;;39.27;;
72053;SDS011;59918;51.280;7.950;2023-05-02T02:53:45;70.57;;;37.58;;
72053;SDS011;59918;51.280;7.950;2023-05-02T03:01:19;69.25;;;37.88;;
72053;SDS011;59918;51.280;7.950;2023-05-02T03:03:46;67.60;;;35.97;;
72053;SDS011;59918;51.280;7.950;2023-05-02T03:06:16;66.38;;;34.90;;
72053;SDS011;59918;51.280;7.950;2023-05-02T03:08:45;66.10;;;35.85;;
72053;SDS011;59918;51.280;7.950;2023-05-02T03:11:10;62.35;;;34.38;;
72053;SDS011;59918;51.280;7.950;2023-05-02T03:13:35;63.13;;;34.65;;
72053;SDS011;59918;51.280;7.950;2023-05-02T03:18:45;59.22;;;33.72;;
72053;SDS011;59918;51.280;7.950;2023-05-02T03:21:10;60.28;;;33.85;;
72053;SDS011;59918;51.280;7.950;2023-05-02T03:23:35;58.90;;;33.90;;
72053;SDS011;59918;51.280;7.950;2023-05-02T03:26:01;61.65;;;33.83;;
72053;SDS011;59918;51.280;7.950;2023-05-02T03:28:26;55.00;;;31.77;;
72053;SDS011;59918;51.280;7.950;2023-05-02T03:30:51;59.50;;;32.20;;
72053;SDS011;59918;51.280;7.950;2023-05-02T03:33:16;68.78;;;35.50;;
72053;SDS011;59918;51.280;7.950;2023-05-02T03:35:44;58.10;;;32.05;;
72053;SDS011;59918;51.280;7.950;2023-05-02T03:38:10;59.15;;;32.50;;
72053;SDS011;59918;51.280;7.950;2023-05-02T03:40:35;56.63;;;31.58;;
72053;SDS011;59918;51.280;7.950;2023-05-02T03:43:00;60.13;;;32.42;;
72053;SDS011;59918;51.280;7.950;2023-05-02T03:45:25;59.50;;;30.25;;
72053;SDS011;59918;51.280;7.950;2023-05-02T03:47:51;60.65;;;31.17;;
72053;SDS011;59918;51.280;7.950;2023-05-02T03:50:17;61.13;;;32.60;;
72053;SDS011;59918;51.280;7.950;2023-05-02T03:52:46;59.42;;;30.05;;
72053;SDS011;59918;51.280;7.950;2023-05-02T03:55:11;59.60;;;30.73;;
72053;SDS011;59918;51.280;7.950;2023-05-02T03:57:37;55.88;;;29.17;;
72053;SDS011;59918;51.280;7.950;2023-05-02T04:00:02;60.45;;;31.15;;
72053;SDS011;59918;51.280;7.950;2023-05-02T04:02:28;56.17;;;28.55;;
72053;SDS011;59918;51.280;7.950;2023-05-02T04:04:56;61.72;;;29.35;;
72053;SDS011;59918;51.280;7.950;2023-05-02T04:07:22;56.30;;;27.42;;
72053;SDS011;59918;51.280;7.950;2023-05-02T04:09:47;60.20;;;28.92;;
72053;SDS011;59918;51.280;7.950;2023-05-02T04:12:14;55.03;;;27.55;;
72053;SDS011;59918;51.280;7.950;2023-05-02T04:14:39;53.10;;;26.48;;
72053;SDS011;59918;51.280;7.950;2023-05-02T04:17:04;55.05;;;28.20;;
72053;SDS011;59918;51.280;7.950;2023-05-02T04:19:35;57.35;;;29.17;;
72053;SDS011;59918;51.280;7.950;2023-05-02T04:22:01;47.80;;;26.27;;
72053;SDS011;59918;51.280;7.950;2023-05-02T04:24:26;47.92;;;26.10;;
72053;SDS011;59918;51.280;7.950;2023-05-02T04:26:52;47.10;;;26.05;;
72053;SDS011;59918;51.280;7.950;2023-05-02T04:29:17;45.60;;;25.38;;
72053;SDS011;59918;51.280;7.950;2023-05-02T04:31:48;43.22;;;24.58;;
72053;SDS011;59918;51.280;7.950;2023-05-02T04:34:13;46.40;;;25.38;;
72053;SDS011;59918;51.280;7.950;2023-05-02T04:36:38;54.30;;;26.60;;
72053;SDS011;59918;51.280;7.950;2023-05-02T04:39:04;38.17;;;22.02;;
72053;SDS011;59918;51.280;7.950;2023-05-02T04:41:29;42.42;;;22.95;;
72053;SDS011;59918;51.280;7.950;2023-05-02T04:44:03;44.42;;;22.38;;
72053;SDS011;59918;51.280;7.950;2023-05-02T04:46:28;45.30;;;22.63;;
72053;SDS011;59918;51.280;7.950;2023-05-02T04:49:00;45.10;;;24.35;;
72053;SDS011;59918;51.280;7.950;2023-05-02T04:51:25;44.77;;;23.20;;
72053;SDS011;59918;51.280;7.950;2023-05-02T04:53:50;43.95;;;22.95;;
72053;SDS011;59918;51.280;7.950;2023-05-02T04:56:15;42.03;;;22.30;;
72053;SDS011;59918;51.280;7.950;2023-05-02T04:58:40;42.75;;;22.17;;
72053;SDS011;59918;51.280;7.950;2023-05-02T05:01:12;41.72;;;22.17;;
72053;SDS011;59918;51.280;7.950;2023-05-02T05:03:37;42.30;;;21.63;;
72053;SDS011;59918;51.280;7.950;2023-05-02T05:06:02;41.40;;;20.65;;
72053;SDS011;59918;51.280;7.950;2023-05-02T05:08:28;36.10;;;19.65;;
72053;SDS011;59918;51.280;7.950;2023-05-02T05:10:53;36.80;;;19.58;;
72053;SDS011;59918;51.280;7.950;2023-05-02T05:13:22;37.30;;;19.17;;
72053;SDS011;59918;51.280;7.950;2023-05-02T05:15:47;29.70;;;17.35;;
72053;SDS011;59918;51.280;7.950;2023-05-02T05:18:12;32.90;;;17.80;;
72053;SDS011;59918;51.280;7.950;2023-05-02T05:20:37;29.20;;;16.50;;
72053;SDS011;59918;51.280;7.950;2023-05-02T05:23:05;30.98;;;16.95;;
72053;SDS011;59918;51.280;7.950;2023-05-02T05:25:30;38.90;;;17.35;;
72053;SDS011;59918;51.280;7.950;2023-05-02T05:27:56;30.38;;;17.33;;
72053;SDS011;59918;51.280;7.950;2023-05-02T05:30:21;45.30;;;18.63;;
72053;SDS011;59918;51.280;7.950;2023-05-02T05:32:49;39.22;;;19.08;;
72053;SDS011;59918;51.280;7.950;2023-05-02T05:35:20;44.33;;;18.02;;
72053;SDS011;59918;51.280;7.950;2023-05-02T05:37:45;41.65;;;17.00;;
72053;SDS011;59918;51.280;7.950;2023-05-02T05:40:10;33.03;;;16.63;;
72053;SDS011;59918;51.280;7.950;2023-05-02T05:42:36;31.95;;;15.80;;
72053;SDS011;59918;51.280;7.950;2023-05-02T05:45:01;28.92;;;15.82;;
72053;SDS011;59918;51.280;7.950;2023-05-02T05:47:30;31.50;;;15.60;;
72053;SDS011;59918;51.280;7.950;2023-05-02T05:49:55;27.17;;;14.75;;
72053;SDS011;59918;51.280;7.950;2023-05-02T05:52:21;28.70;;;15.60;;
72053;SDS011;59918;51.280;7.950;2023-05-02T05:54:46;34.90;;;16.88;;
72053;SDS011;59918;51.280;7.950;2023-05-02T05:57:11;31.77;;;16.05;;
72053;SDS011;59918;51.280;7.950;2023-05-02T05:59:37;30.85;;;16.73;;
72053;SDS011;59918;51.280;7.950;2023-05-02T06:02:02;29.42;;;15.88;;
72053;SDS011;59918;51.280;7.950;2023-05-02T06:04:30;30.13;;;15.20;;
72053;SDS011;59918;51.280;7.950;2023-05-02T06:06:58;27.38;;;15.32;;
72053;SDS011;59918;51.280;7.950;2023-05-02T06:09:23;26.98;;;15.30;;
72053;SDS011;59918;51.280;7.950;2023-05-02T06:11:48;26.95;;;15.50;;
72053;SDS011;59918;51.280;7.950;2023-05-02T06:14:17;28.02;;;15.80;;
72053;SDS011;59918;51.280;7.950;2023-05-02T06:16:42;29.92;;;15.68;;
72053;SDS011;59918;51.280;7.950;2023-05-02T06:19:08;25.23;;;14.68;;
72053;SDS011;59918;51.280;7.950;2023-05-02T06:21:35;29.80;;;15.57;;
72053;SDS011;59918;51.280;7.950;2023-05-02T06:24:00;24.35;;;13.75;;
72053;SDS011;59918;51.280;7.950;2023-05-02T06:26:25;29.08;;;14.40;;
72053;SDS011;59918;51.280;7.950;2023-05-02T06:28:54;20.42;;;12.60;;
72053;SDS011;59918;51.280;7.950;2023-05-02T06:31:19;20.88;;;12.50;;
72053;SDS011;59918;51.280;7.950;2023-05-02T06:33:45;22.77;;;13.82;;
72053;SDS011;59918;51.280;7.950;2023-05-02T06:36:10;20.45;;;12.80;;
72053;SDS011;59918;51.280;7.950;2023-05-02T06:38:35;16.25;;;10.32;;
72053;SDS011;59918;51.280;7.950;2023-05-02T06:41:00;15.25;;;9.20;;
72053;SDS011;59918;51.280;7.950;2023-05-02T06:43:25;11.48;;;8.23;;
72053;SDS011;59918;51.280;7.950;2023-05-02T06:45:54;11.48;;;7.97;;
72053;SDS011;59918;51.280;7.950;2023-05-02T06:48:19;9.50;;;7.10;;
72053;SDS011;59918;51.280;7.950;2023-05-02T06:50:45;12.18;;;7.65;;
72053;SDS011;59918;51.280;7.950;2023-05-02T06:53:10;10.27;;;7.40;;
72053;SDS011;59918;51.280;7.950;2023-05-02T06:55:35;10.90;;;7.38;;
72053;SDS011;59918;51.280;7.950;2023-05-02T06:58:00;8.02;;;6.38;;
72053;SDS011;59918;51.280;7.950;2023-05-02T07:00:26;7.15;;;5.57;;
72053;SDS011;59918;51.280;7.950;2023-05-02T07:02:54;7.68;;;6.00;;
72053;SDS011;59918;51.280;7.950;2023-05-02T07:05:19;8.68;;;6.70;;
72053;SDS011;59918;51.280;7.950;2023-05-02T07:07:45;5.82;;;5.15;;
72053;SDS011;59918;51.280;7.950;2023-05-02T07:10:10;7.47;;;5.28;;
72053;SDS011;59918;51.280;7.950;2023-05-02T07:12:36;8.00;;;5.43;;
72053;SDS011;59918;51.280;7.950;2023-05-02T07:15:02;7.18;;;5.90;;
72053;SDS011;59918;51.280;7.950;2023-05-02T07:17:33;10.00;;;5.33;;
72053;SDS011;59918;51.280;7.950;2023-05-02T07:20:00;4.63;;;3.95;;
72053;SDS011;59918;51.280;7.950;2023-05-02T07:22:25;4.55;;;4.15;;
72053;SDS011;59918;51.280;7.950;2023-05-02T07:25:00;5.30;;;4.20;;
72053;SDS011;59918;51.280;7.950;2023-05-02T07:27:32;4.30;;;3.90;;
72053;SDS011;59918;51.280;7.950;2023-05-02T07:29:57;5.55;;;3.42;;
72053;SDS011;59918;51.280;7.950;2023-05-02T07:32:22;4.20;;;3.80;;
72053;SDS011;59918;51.280;7.950;2023-05-02T07:34:48;5.70;;;3.88;;
72053;SDS011;59918;51.280;7.950;2023-05-02T07:37:13;5.10;;;4.00;;
72053;SDS011;59918;51.280;7.950;2023-05-02T07:39:47;4.55;;;3.78;;
72053;SDS011;59918;51.280;7.950;2023-05-02T07:42:12;7.40;;;4.20;;
72053;SDS011;59918;51.280;7.950;2023-05-02T07:44:37;9.20;;;4.70;;
72053;SDS011;59918;51.280;7.950;2023-05-02T07:47:09;5.55;;;4.50;;
72053;SDS011;59918;51.280;7.950;2023-05-02T07:49:34;6.40;;;4.63;;
72053;SDS011;59918;51.280;7.950;2023-05-02T07:51:59;5.38;;;4.90;;
72053;SDS011;59918;51.280;7.950;2023-05-02T07:54:24;5.38;;;4.90;;
72053;SDS011;59918;51.280;7.950;2023-05-02T07:56:50;5.47;;;5.07;;
72053;SDS011;59918;51.280;7.950;2023-05-02T07:59:21;5.88;;;5.28;;
72053;SDS011;59918;51.280;7.950;2023-05-02T08:01:46;6.33;;;5.80;;
72053;SDS011;59918;51.280;7.950;2023-05-02T08:04:12;6.13;;;5.57;;
72053;SDS011;59918;51.280;7.950;2023-05-02T08:06:37;5.53;;;5.00;;
72053;SDS011;59918;51.280;7.950;2023-05-02T08:09:02;6.28;;;5.68;;
72053;SDS011;59918;51.280;7.950;2023-05-02T08:11:31;6.47;;;5.85;;
72053;SDS011;59918;51.280;7.950;2023-05-02T08:13:56;5.47;;;5.00;;
72053;SDS011;59918;51.280;7.950;2023-05-02T08:16:21;7.63;;;5.57;;
72053;SDS011;59918;51.280;7.950;2023-05-02T08:18:46;10.00;;;6.65;;
72053;SDS011;59918;51.280;7.950;2023-05-02T08:21:12;7.05;;;5.40;;
72053;SDS011;59918;51.280;7.950;2023-05-02T08:23:39;6.25;;;4.80;;
72053;SDS011;59918;51.280;7.950;2023-05-02T08:26:10;6.38;;;5.18;;
72053;SDS011;59918;51.280;7.950;2023-05-02T08:28:35;5.18;;;4.80;;
72053;SDS011;59918;51.280;7.950;2023-05-02T08:31:01;6.32;;;4.68;;
72053;SDS011;59918;51.280;7.950;2023-05-02T08:33:26;8.77;;;4.53;;
72053;SDS011;59918;51.280;7.950;2023-05-02T08:35:51;5.43;;;4.90;;
72053;SDS011;59918;51.280;7.950;2023-05-02T08:38:22;6.28;;;4.68;;
72053;SDS011;59918;51.280;7.950;2023-05-02T08:40:47;6.68;;;4.32;;
72053;SDS011;59918;51.280;7.950;2023-05-02T08:43:13;5.10;;;4.45;;
72053;SDS011;59918;51.280;7.950;2023-05-02T08:45:43;5.68;;;5.05;;
72053;SDS011;59918;51.280;7.950;2023-05-02T08:48:10;5.60;;;4.60;;
72053;SDS011;59918;51.280;7.950;2023-05-02T08:50:40;8.27;;;4.85;;
72053;SDS011;59918;51.280;7.950;2023-05-02T08:53:12;7.40;;;5.00;;
72053;SDS011;59918;51.280;7.950;2023-05-02T08:55:38;7.07;;;5.45;;
72053;SDS011;59918;51.280;7.950;2023-05-02T08:58:08;7.57;;;5.80;;
72053;SDS011;59918;51.280;7.950;2023-05-02T09:00:40;6.65;;;5.28;;
72053;SDS011;59918;51.280;7.950;2023-05-02T09:06:13;9.93;;;6.40;;
72053;SDS011;59918;51.280;7.950;2023-05-02T09:08:44;7.80;;;5.75;;
72053;SDS011;59918;51.280;7.950;2023-05-02T09:11:11;6.75;;;5.38;;
72053;SDS011;59918;51.280;7.950;2023-05-02T09:18:40;2.83;;;2.63;;
72053;SDS011;59918;51.280;7.950;2023-05-02T09:21:22;2.00;;;1.90;;
72053;SDS011;59918;51.280;7.950;2023-05-02T09:23:53;3.55;;;2.40;;
72053;SDS011;59918;51.280;7.950;2023-05-02T09:26:25;1.95;;;1.85;;
72053;SDS011;59918;51.280;7.950;2023-05-02T09:29:02;1.70;;;1.60;;
72053;SDS011;59918;51.280;7.950;2023-05-02T09:31:32;1.50;;;1.40;;
72053;SDS011;59918;51.280;7.950;2023-05-02T09:34:09;1.50;;;1.40;;
72053;SDS011;59918;51.280;7.950;2023-05-02T09:39:10;1.83;;;1.73;;
72053;SDS011;59918;51.280;7.950;2023-05-02T09:41:46;1.88;;;1.60;;
72053;SDS011;59918;51.280;7.950;2023-05-02T09:44:12;2.20;;;2.10;;
72053;SDS011;59918;51.280;7.950;2023-05-02T09:46:39;2.67;;;1.83;;
72053;SDS011;59918;51.280;7.950;2023-05-02T09:49:08;4.82;;;2.72;;
72053;SDS011;59918;51.280;7.950;2023-05-02T09:51:33;4.70;;;1.90;;
72053;SDS011;59918;51.280;7.950;2023-05-02T09:53:59;3.15;;;2.85;;
72053;SDS011;59918;51.280;7.950;2023-05-02T09:56:24;3.33;;;3.03;;
72053;SDS011;59918;51.280;7.950;2023-05-02T09:58:49;3.60;;;3.20;;
72053;SDS011;59918;51.280;7.950;2023-05-02T10:01:21;7.45;;;3.90;;
72053;SDS011;59918;51.280;7.950;2023-05-02T10:03:46;4.70;;;3.93;;
72053;SDS011;59918;51.280;7.950;2023-05-02T10:06:12;5.68;;;3.50;;
72053;SDS011;59918;51.280;7.950;2023-05-02T10:08:39;5.90;;;3.90;;
72053;SDS011;59918;51.280;7.950;2023-05-02T10:13:37;4.18;;;3.28;;
72053;SDS011;59918;51.280;7.950;2023-05-02T10:16:03;3.33;;;3.13;;
72053;SDS011;59918;51.280;7.950;2023-05-02T10:21:24;4.25;;;2.97;;
72053;SDS011;59918;51.280;7.950;2023-05-02T10:23:50;3.38;;;3.10;;
72053;SDS011;59918;51.280;7.950;2023-05-02T10:26:19;4.22;;;3.10;;
72053;SDS011;59918;51.280;7.950;2023-05-02T10:28:47;3.85;;;3.22;;
72053;SDS011;59918;51.280;7.950;2023-05-02T10:31:13;6.07;;;2.90;;
72053;SDS011;59918;51.280;7.950;2023-05-02T10:33:39;4.55;;;3.10;;
72053;SDS011;59918;51.280;7.950;2023-05-02T10:36:08;5.50;;;3.13;;
72053;SDS011;59918;51.280;7.950;2023-05-02T10:38:34;4.00;;;3.60;;
72053;SDS011;59918;51.280;7.950;2023-05-02T10:41:02;7.72;;;3.85;;
72053;SDS011;59918;51.280;7.950;2023-05-02T10:43:47;8.32;;;3.88;;
72053;SDS011;59918;51.280;7.950;2023-05-02T10:49:09;4.38;;;3.70;;
72053;SDS011;59918;51.280;7.950;2023-05-02T10:51:36;4.22;;;3.53;;
72053;SDS011;59918;51.280;7.950;2023-05-02T10:54:39;13.43;;;4.18;;
72053;SDS011;59918;51.280;7.950;2023-05-02T10:59:27;5.40;;;3.47;;
72053;SDS011;59918;51.280;7.950;2023-05-02T11:01:58;4.90;;;3.83;;
72053;SDS011;59918;51.280;7.950;2023-05-02T11:04:24;4.63;;;3.37;;
72053;SDS011;59918;51.280;7.950;2023-05-02T11:11:50;4.40;;;3.35;;
72053;SDS011;59918;51.280;7.950;2023-05-02T11:19:21;5.05;;;3.20;;
72053;SDS011;59918;51.280;7.950;2023-05-02T11:21:46;6.45;;;3.22;;
72053;SDS011;59918;51.280;7.950;2023-05-02T11:30:08;4.30;;;3.80;;
72053;SDS011;59918;51.280;7.950;2023-05-02T11:35:27;6.45;;;4.10;;
72053;SDS011;59918;51.280;7.950;2023-05-02T11:40:21;9.13;;;4.40;;
72053;SDS011;59918;51.280;7.950;2023-05-02T11:42:47;6.63;;;4.25;;
72053;SDS011;59918;51.280;7.950;2023-05-02T11:45:12;7.13;;;4.80;;
72053;SDS011;59918;51.280;7.950;2023-05-02T11:47:37;10.02;;;5.38;;
72053;SDS011;59918;51.280;7.950;2023-05-02T11:50:03;10.88;;;6.18;;
72053;SDS011;59918;51.280;7.950;2023-05-02T11:52:36;10.10;;;6.45;;
72053;SDS011;59918;51.280;7.950;2023-05-02T11:55:11;12.05;;;8.55;;
72053;SDS011;59918;51.280;7.950;2023-05-02T11:57:38;9.90;;;6.85;;
72053;SDS011;59918;51.280;7.950;2023-05-02T12:00:13;13.95;;;7.38;;
72053;SDS011;59918;51.280;7.950;2023-05-02T12:02:39;16.80;;;8.10;;
72053;SDS011;59918;51.280;7.950;2023-05-02T12:05:09;17.25;;;7.85;;
72053;SDS011;59918;51.280;7.950;2023-05-02T12:10:09;12.98;;;7.05;;
72053;SDS011;59918;51.280;7.950;2023-05-02T12:12:36;12.23;;;6.00;;
72053;SDS011;59918;51.280;7.950;2023-05-02T12:15:02;13.82;;;6.57;;
72053;SDS011;59918;51.280;7.950;2023-05-02T12:17:38;13.55;;;6.97;;
72053;SDS011;59918;51.280;7.950;2023-05-02T12:20:08;12.18;;;7.13;;
72053;SDS011;59918;51.280;7.950;2023-05-02T12:22:34;15.52;;;6.93;;
72053;SDS011;59918;51.280;7.950;2023-05-02T12:25:00;13.80;;;6.57;;
72053;SDS011;59918;51.280;7.950;2023-05-02T12:27:26;17.35;;;6.78;;
72053;SDS011;59918;51.280;7.950;2023-05-02T12:29:51;18.13;;;6.90;;
72053;SDS011;59918;51.280;7.950;2023-05-02T12:32:32;15.48;;;6.90;;
72053;SDS011;59918;51.280;7.950;2023-05-02T12:34:59;14.40;;;6.65;;
72053;SDS011;59918;51.280;7.950;2023-05-02T12:37:25;15.60;;;7.00;;
72053;SDS011;59918;51.280;7.950;2023-05-02T12:39:52;18.08;;;7.90;;
72053;SDS011;59918;51.280;7.950;2023-05-02T12:42:24;10.02;;;7.00;;
72053;SDS011;59918;51.280;7.950;2023-05-02T12:44:50;14.13;;;7.25;;
72053;SDS011;59918;51.280;7.950;2023-05-02T12:47:15;15.27;;;6.70;;
72053;SDS011;59918;51.280;7.950;2023-05-02T12:52:44;13.90;;;7.47;;
72053;SDS011;59918;51.280;7.950;2023-05-02T12:55:21;17.50;;;7.32;;
72053;SDS011;59918;51.280;7.950;2023-05-02T12:57:47;17.55;;;7.88;;
72053;SDS011;59918;51.280;7.950;2023-05-02T13:00:15;12.15;;;8.00;;
72053;SDS011;59918;51.280;7.950;2023-05-02T13:02:44;11.48;;;6.80;;
72053;SDS011;59918;51.280;7.950;2023-05-02T13:05:16;10.20;;;6.43;;
72053;SDS011;59918;51.280;7.950;2023-05-02T13:07:45;14.35;;;7.35;;
72053;SDS011;59918;51.280;7.950;2023-05-02T13:10:10;13.10;;;6.88;;
72053;SDS011;59918;51.280;7.950;2023-05-02T13:12:38;13.63;;;6.97;;
72053;SDS011;59918;51.280;7.950;2023-05-02T13:15:04;15.25;;;7.57;;
72053;SDS011;59918;51.280;7.950;2023-05-02T13:17:35;13.27;;;8.05;;
72053;SDS011;59918;51.280;7.950;2023-05-02T13:20:00;10.63;;;7.38;;
72053;SDS011;59918;51.280;7.950;2023-05-02T13:22:34;14.40;;;7.30;;
72053;SDS011;59918;51.280;7.950;2023-05-02T13:24:59;12.90;;;7.50;;
72053;SDS011;59918;51.280;7.950;2023-05-02T13:27:26;16.33;;;7.20;;
72053;SDS011;59918;51.280;7.950;2023-05-02T13:29:58;12.73;;;7.15;;
72053;SDS011;59918;51.280;7.950;2023-05-02T13:32:23;13.90;;;6.88;;
72053;SDS011;59918;51.280;7.950;2023-05-02T13:34:49;10.80;;;5.80;;
72053;SDS011;59918;51.280;7.950;2023-05-02T13:37:14;9.77;;;5.18;;
72053;SDS011;59918;51.280;7.950;2023-05-02T13:39:39;11.15;;;4.53;;
72053;SDS011;59918;51.280;7.950;2023-05-02T13:42:08;9.30;;;6.15;;
72053;SDS011;59918;51.280;7.950;2023-05-02T13:44:33;13.55;;;5.07;;
72053;SDS011;59918;51.280;7.950;2023-05-02T13:46:58;13.50;;;5.60;;
72053;SDS011;59918;51.280;7.950;2023-05-02T13:49:24;10.75;;;5.85;;
72053;SDS011;59918;51.280;7.950;2023-05-02T13:51:49;10.98;;;5.95;;
72053;SDS011;59918;51.280;7.950;2023-05-02T13:54:14;11.45;;;5.95;;
72053;SDS011;59918;51.280;7.950;2023-05-02T13:56:40;12.30;;;6.97;;
72053;SDS011;59918;51.280;7.950;2023-05-02T13:59:08;9.75;;;5.60;;
72053;SDS011;59918;51.280;7.950;2023-05-02T14:01:33;11.55;;;5.50;;
72053;SDS011;59918;51.280;7.950;2023-05-02T14:03:59;12.20;;;6.50;;
72053;SDS011;59918;51.280;7.950;2023-05-02T14:06:24;12.13;;;6.47;;
72053;SDS011;59918;51.280;7.950;2023-05-02T14:08:49;9.20;;;6.32;;
72053;SDS011;59918;51.280;7.950;2023-05-02T14:11:14;10.82;;;6.53;;
72053;SDS011;59918;51.280;7.950;2023-05-02T14:13:40;7.63;;;5.50;;
72053;SDS011;59918;51.280;7.950;2023-05-02T14:16:11;8.80;;;6.47;;
72053;SDS011;59918;51.280;7.950;2023-05-02T14:18:36;9.98;;;6.07;;
72053;SDS011;59918;51.280;7.950;2023-05-02T14:21:01;7.45;;;6.30;;
72053;SDS011;59918;51.280;7.950;2023-05-02T14:23:26;9.68;;;6.10;;
72053;SDS011;59918;51.280;7.950;2023-05-02T14:25:51;10.32;;;6.10;;
72053;SDS011;59918;51.280;7.950;2023-05-02T14:28:20;11.32;;;6.53;;
72053;SDS011;59918;51.280;7.950;2023-05-02T14:30:48;10.38;;;6.28;;
72053;SDS011;59918;51.280;7.950;2023-05-02T14:33:14;11.70;;;6.28;;
72053;SDS011;59918;51.280;7.950;2023-05-02T14:35:39;8.05;;;6.03;;
72053;SDS011;59918;51.280;7.950;2023-05-02T14:38:08;7.38;;;6.07;;
72053;SDS011;59918;51.280;7.950;2023-05-02T14:40:33;7.05;;;5.30;;
72053;SDS011;59918;51.280;7.950;2023-05-02T14:42:58;8.23;;;4.72;;
72053;SDS011;59918;51.280;7.950;2023-05-02T14:45:24;12.10;;;4.70;;
72053;SDS011;59918;51.280;7.950;2023-05-02T14:47:49;6.03;;;4.68;;
72053;SDS011;59918;51.280;7.950;2023-05-02T14:50:15;8.77;;;5.60;;
72053;SDS011;59918;51.280;7.950;2023-05-02T14:52:47;7.95;;;4.65;;
72053;SDS011;59918;51.280;7.950;2023-05-02T14:55:12;9.23;;;4.68;;
72053;SDS011;59918;51.280;7.950;2023-05-02T14:57:44;8.48;;;4.00;;
72053;SDS011;59918;51.280;7.950;2023-05-02T15:00:09;8.02;;;4.10;;
72053;SDS011;59918;51.280;7.950;2023-05-02T15:02:44;7.15;;;4.50;;
72053;SDS011;59918;51.280;7.950;2023-05-02T15:05:09;7.80;;;4.03;;
72053;SDS011;59918;51.280;7.950;2023-05-02T15:07:47;7.03;;;3.60;;
72053;SDS011;59918;51.280;7.950;2023-05-02T15:13:14;8.40;;;4.15;;
72053;SDS011;59918;51.280;7.950;2023-05-02T15:15:40;6.82;;;3.78;;
72053;SDS011;59918;51.280;7.950;2023-05-02T15:18:08;6.68;;;3.50;;
72053;SDS011;59918;51.280;7.950;2023-05-02T15:20:33;8.18;;;4.00;;
72053;SDS011;59918;51.280;7.950;2023-05-02T15:22:58;5.15;;;3.53;;
72053;SDS011;59918;51.280;7.950;2023-05-02T15:25:24;5.95;;;3.63;;
72053;SDS011;59918;51.280;7.950;2023-05-02T15:27:49;6.72;;;3.92;;
72053;SDS011;59918;51.280;7.950;2023-05-02T15:30:14;5.03;;;4.03;;
72053;SDS011;59918;51.280;7.950;2023-05-02T15:32:39;5.38;;;4.43;;
72053;SDS011;59918;51.280;7.950;2023-05-02T15:35:08;4.05;;;3.60;;
72053;SDS011;59918;51.280;7.950;2023-05-02T15:37:33;9.88;;;3.97;;
72053;SDS011;59918;51.280;7.950;2023-05-02T15:39:59;7.65;;;3.90;;
72053;SDS011;59918;51.280;7.950;2023-05-02T15:42:24;8.00;;;3.88;;
72053;SDS011;59918;51.280;7.950;2023-05-02T15:44:49;4.68;;;3.53;;
72053;SDS011;59918;51.280;7.950;2023-05-02T15:47:14;3.67;;;2.90;;
72053;SDS011;59918;51.280;7.950;2023-05-02T15:49:39;7.75;;;3.83;;
72053;SDS011;59918;51.280;7.950;2023-05-02T15:52:08;5.85;;;3.80;;
72053;SDS011;59918;51.280;7.950;2023-05-02T15:54:33;4.45;;;4.05;;
72053;SDS011;59918;51.280;7.950;2023-05-02T15:56:58;8.95;;;4.00;;
72053;SDS011;59918;51.280;7.950;2023-05-02T15:59:23;5.90;;;4.32;;
72053;SDS011;59918;51.280;7.950;2023-05-02T16:01:49;4.30;;;3.90;;